createdAt,value
2023-12-23T00:00:04.568Z,92.34
2023-12-23T00:00:34.620Z,92.03
2023-12-23T00:01:04.727Z,91.41
2023-12-23T00:01:35.166Z,91.82
2023-12-23T00:02:05.167Z,92.55
2023-12-23T00:02:34.519Z,91.93
2023-12-23T00:03:07.256Z,90.89
2023-12-23T00:03:52.311Z,89.86
2023-12-23T00:04:04.425Z,90.16
2023-12-23T00:04:35.199Z,90.26
2023-12-23T00:05:04.455Z,90.58
2023-12-23T00:05:34.489Z,90.06
2023-12-23T00:06:04.342Z,90.06
2023-12-23T00:06:34.239Z,90.37
2023-12-23T00:07:04.653Z,90.89
2023-12-23T00:07:34.267Z,89.96
2023-12-23T00:08:04.182Z,89.75
2023-12-23T00:08:34.308Z,89.96
2023-12-23T00:09:07.108Z,90.06
2023-12-23T00:09:52.261Z,90.58
2023-12-23T00:10:04.260Z,90.58
2023-12-23T00:10:34.234Z,90.16
2023-12-23T00:11:04.223Z,90.58
2023-12-23T00:11:34.066Z,90.16
2023-12-23T00:12:04.136Z,89.34
2023-12-23T00:12:34.203Z,89.96
2023-12-23T00:13:04.082Z,90.37
2023-12-23T00:13:34.125Z,90.47
2023-12-23T00:14:04.104Z,89.96
2023-12-23T00:14:34.065Z,90.06
2023-12-23T00:15:07.585Z,89.96
2023-12-23T00:15:52.181Z,90.37
2023-12-23T00:16:04.040Z,89.44
2023-12-23T00:16:34.135Z,89.75
2023-12-23T00:17:04.363Z,89.75
2023-12-23T00:17:34.202Z,89.34
2023-12-23T00:18:04.642Z,90.06
2023-12-23T00:18:34.137Z,89.54
2023-12-23T00:19:04.196Z,88.40
2023-12-23T00:19:34.126Z,88.40
2023-12-23T00:20:04.255Z,88.51
2023-12-23T00:20:34.192Z,88.82
2023-12-23T00:21:07.199Z,89.03
2023-12-23T00:21:52.301Z,89.03
2023-12-23T00:22:03.963Z,89.23
2023-12-23T00:22:33.947Z,88.92
2023-12-23T00:23:04.026Z,88.51
2023-12-23T00:23:33.955Z,88.61
2023-12-23T00:24:03.980Z,89.34
2023-12-23T00:24:34.088Z,88.92
2023-12-23T00:25:04.095Z,88.61
2023-12-23T00:25:34.004Z,89.23
2023-12-23T00:26:04.135Z,89.03
2023-12-23T00:26:34.104Z,89.44
2023-12-23T00:27:07.066Z,88.71
2023-12-23T00:27:52.389Z,88.20
2023-12-23T00:28:03.956Z,88.40
2023-12-23T00:28:34.035Z,89.44
2023-12-23T00:29:04.025Z,89.34
2023-12-23T00:29:33.923Z,89.38
2023-12-23T00:30:04.052Z,89.44
2023-12-23T00:30:33.970Z,89.48
2023-12-23T00:31:03.961Z,90.20
2023-12-23T00:31:33.981Z,90.31
2023-12-23T00:32:04.055Z,90.10
2023-12-23T00:32:33.885Z,89.58
2023-12-23T00:33:07.094Z,89.79
2023-12-23T00:33:52.073Z,89.79
2023-12-23T00:34:03.844Z,89.48
2023-12-23T00:34:33.907Z,90.20
2023-12-23T00:35:03.897Z,90.00
2023-12-23T00:35:33.892Z,90.83
2023-12-23T00:36:03.845Z,90.62
2023-12-23T00:36:33.826Z,90.83
2023-12-23T00:37:03.840Z,91.03
2023-12-23T00:37:34.029Z,91.55
2023-12-23T00:38:03.988Z,91.08
2023-12-23T00:38:33.914Z,90.45
2023-12-23T00:39:07.021Z,90.35
2023-12-23T00:39:51.953Z,90.35
2023-12-23T00:40:03.857Z,91.08
2023-12-23T00:40:33.829Z,90.87
2023-12-23T00:41:03.834Z,89.94
2023-12-23T00:41:33.773Z,90.35
2023-12-23T00:42:03.783Z,90.14
2023-12-23T00:42:33.875Z,90.25
2023-12-23T00:43:03.785Z,90.87
2023-12-23T00:43:33.827Z,90.87
2023-12-23T00:44:03.732Z,90.35
2023-12-23T00:44:33.731Z,89.94
2023-12-23T00:45:06.742Z,89.83
2023-12-23T00:45:51.870Z,89.73
2023-12-23T00:46:03.731Z,89.73
2023-12-23T00:46:33.740Z,90.14
2023-12-23T00:47:03.734Z,90.25
2023-12-23T00:47:36.439Z,89.11
2023-12-23T00:48:03.813Z,89.31
2023-12-23T00:48:33.765Z,88.90
2023-12-23T00:49:03.889Z,88.39
2023-12-23T00:49:33.718Z,88.90
2023-12-23T00:50:03.771Z,88.48
2023-12-23T00:50:33.651Z,88.28
2023-12-23T00:51:06.682Z,87.76
2023-12-23T00:51:51.804Z,87.55
2023-12-23T00:52:03.694Z,87.76
2023-12-23T00:52:33.822Z,87.14
2023-12-23T00:53:03.697Z,86.62
2023-12-23T00:53:33.753Z,86.93
2023-12-23T00:54:03.621Z,87.14
2023-12-23T00:54:33.676Z,87.55
2023-12-23T00:55:03.687Z,87.45
2023-12-23T00:55:33.718Z,87.14
2023-12-23T00:56:03.673Z,87.35
2023-12-23T00:56:34.515Z,87.35
2023-12-23T00:57:06.660Z,86.25
2023-12-23T00:57:51.943Z,87.07
2023-12-23T00:58:03.624Z,86.45
2023-12-23T00:58:33.684Z,85.94
2023-12-23T00:59:03.637Z,86.35
2023-12-23T00:59:33.567Z,86.66
2023-12-23T01:00:03.607Z,86.76
2023-12-23T01:00:33.657Z,86.76
2023-12-23T01:01:03.627Z,87.07
2023-12-23T01:01:33.722Z,86.76
2023-12-23T01:02:03.632Z,86.55
2023-12-23T01:02:33.533Z,86.76
2023-12-23T01:03:06.550Z,86.87
2023-12-23T01:03:51.671Z,87.18
2023-12-23T01:04:03.594Z,87.49
2023-12-23T01:04:33.502Z,87.38
2023-12-23T01:05:03.608Z,86.97
2023-12-23T01:05:33.494Z,87.18
2023-12-23T01:06:03.522Z,87.18
2023-12-23T01:06:33.523Z,87.70
2023-12-23T01:07:03.508Z,88.01
2023-12-23T01:07:33.481Z,88.53
2023-12-23T01:08:03.516Z,89.36
2023-12-23T01:08:33.470Z,89.36
2023-12-23T01:09:06.472Z,89.40
2023-12-23T01:09:51.597Z,90.12
2023-12-23T01:10:03.463Z,90.64
2023-12-23T01:10:33.618Z,90.85
2023-12-23T01:11:03.501Z,91.16
2023-12-23T01:11:33.521Z,91.27
2023-12-23T01:12:03.430Z,91.68
2023-12-23T01:12:33.439Z,92.20
2023-12-23T01:13:03.418Z,92.30
2023-12-23T01:13:33.579Z,92.61
2023-12-23T01:14:03.470Z,92.82
2023-12-23T01:14:33.432Z,93.23
2023-12-23T01:15:07.036Z,93.85
2023-12-23T01:15:51.693Z,93.96
2023-12-23T01:16:03.396Z,94.37
2023-12-23T01:16:33.386Z,94.94
2023-12-23T01:17:03.429Z,95.15
2023-12-23T01:17:33.390Z,95.46
2023-12-23T01:18:03.479Z,95.56
2023-12-23T01:18:33.490Z,95.77
2023-12-23T01:19:03.417Z,96.19
2023-12-23T01:19:33.366Z,96.19
2023-12-23T01:20:03.438Z,95.98
2023-12-23T01:20:33.374Z,96.08
2023-12-23T01:21:06.356Z,96.08
2023-12-23T01:21:51.455Z,96.60
2023-12-23T01:22:03.363Z,96.60
2023-12-23T01:22:33.317Z,96.81
2023-12-23T01:23:03.384Z,96.70
2023-12-23T01:23:33.297Z,96.50
2023-12-23T01:24:03.322Z,96.39
2023-12-23T01:24:33.316Z,96.19
2023-12-23T01:25:03.334Z,96.39
2023-12-23T01:25:33.295Z,96.50
2023-12-23T01:26:03.353Z,96.08
2023-12-23T01:26:33.282Z,95.77
2023-12-23T01:27:06.291Z,95.67
2023-12-23T01:27:51.739Z,95.87
2023-12-23T01:28:03.261Z,95.87
2023-12-23T01:28:33.255Z,95.98
2023-12-23T01:29:03.290Z,96.50
2023-12-23T01:29:33.245Z,96.19
2023-12-23T01:30:03.279Z,95.56
2023-12-23T01:30:33.259Z,95.56
2023-12-23T01:31:03.397Z,95.36
2023-12-23T01:31:33.253Z,94.63
2023-12-23T01:32:03.249Z,93.70
2023-12-23T01:32:33.292Z,93.49
2023-12-23T01:33:06.292Z,93.70
2023-12-23T01:33:51.410Z,93.59
2023-12-23T01:34:03.216Z,93.38
2023-12-23T01:34:33.684Z,93.28
2023-12-23T01:35:03.222Z,92.93
2023-12-23T01:35:33.254Z,92.72
2023-12-23T01:36:03.188Z,92.82
2023-12-23T01:36:33.222Z,92.93
2023-12-23T01:37:03.213Z,93.65
2023-12-23T01:37:33.248Z,93.85
2023-12-23T01:38:05.663Z,93.85
2023-12-23T01:38:33.179Z,93.33
2023-12-23T01:39:06.167Z,93.54
2023-12-23T01:39:51.250Z,93.80
2023-12-23T01:40:03.184Z,93.80
2023-12-23T01:40:33.135Z,94.11
2023-12-23T01:41:03.250Z,93.90
2023-12-23T01:41:33.130Z,93.80
2023-12-23T01:42:03.128Z,93.80
2023-12-23T01:42:33.091Z,94.32
2023-12-23T01:43:03.147Z,94.42
2023-12-23T01:43:34.604Z,94.32
2023-12-23T01:44:03.696Z,94.01
2023-12-23T01:44:33.086Z,93.59
2023-12-23T01:45:06.606Z,92.82
2023-12-23T01:45:51.200Z,92.93
2023-12-23T01:46:03.062Z,93.13
2023-12-23T01:46:33.058Z,92.72
2023-12-23T01:47:03.080Z,93.13
2023-12-23T01:47:33.071Z,92.61
2023-12-23T01:48:03.124Z,92.20
2023-12-23T01:48:33.206Z,92.72
2023-12-23T01:49:03.081Z,92.61
2023-12-23T01:49:33.045Z,92.41
2023-12-23T01:50:03.060Z,91.99
2023-12-23T01:50:33.008Z,91.78
2023-12-23T01:51:06.098Z,91.78
2023-12-23T01:51:51.188Z,91.89
2023-12-23T01:52:03.001Z,91.78
2023-12-23T01:52:33.016Z,92.10
2023-12-23T01:53:03.202Z,92.30
2023-12-23T01:53:33.102Z,91.47
2023-12-23T01:54:03.032Z,91.47
2023-12-23T01:54:32.973Z,90.54
2023-12-23T01:55:02.986Z,90.50
2023-12-23T01:55:33.001Z,90.08
2023-12-23T01:56:03.040Z,90.08
2023-12-23T01:56:32.992Z,90.08
2023-12-23T01:57:05.988Z,90.08
2023-12-23T01:57:51.258Z,90.08
2023-12-23T01:58:03.506Z,89.77
2023-12-23T01:58:33.916Z,89.25
2023-12-23T01:59:02.964Z,88.32
2023-12-23T01:59:32.976Z,88.32
2023-12-23T02:00:02.983Z,88.42
2023-12-23T02:00:33.075Z,87.70
2023-12-23T02:01:02.992Z,88.11
2023-12-23T02:01:33.009Z,87.76
2023-12-23T02:02:02.981Z,87.80
2023-12-23T02:02:32.963Z,88.21
2023-12-23T02:03:06.012Z,88.73
2023-12-23T02:03:51.026Z,89.11
2023-12-23T02:04:02.969Z,88.79
2023-12-23T02:04:32.866Z,88.48
2023-12-23T02:05:02.992Z,88.07
2023-12-23T02:05:32.987Z,87.45
2023-12-23T02:06:02.966Z,87.04
2023-12-23T02:06:32.895Z,87.87
2023-12-23T02:07:02.889Z,86.93
2023-12-23T02:07:32.868Z,87.14
2023-12-23T02:08:02.919Z,87.35
2023-12-23T02:08:32.883Z,87.45
2023-12-23T02:09:05.867Z,87.14
2023-12-23T02:09:50.975Z,86.72
2023-12-23T02:10:02.838Z,86.83
2023-12-23T02:10:32.851Z,86.72
2023-12-23T02:11:03.010Z,86.93
2023-12-23T02:11:32.929Z,87.14
2023-12-23T02:12:02.786Z,87.76
2023-12-23T02:12:32.774Z,87.45
2023-12-23T02:13:09.995Z,86.93
2023-12-23T02:13:32.829Z,87.14
2023-12-23T02:14:02.832Z,87.87
2023-12-23T02:14:32.852Z,88.39
2023-12-23T02:15:05.861Z,87.97
2023-12-23T02:15:50.910Z,86.83
2023-12-23T02:16:02.776Z,87.04
2023-12-23T02:16:32.746Z,87.35
2023-12-23T02:17:02.759Z,87.45
2023-12-23T02:17:32.842Z,87.24
2023-12-23T02:18:02.824Z,87.35
2023-12-23T02:19:02.725Z,87.55
2023-12-23T02:19:32.704Z,87.04
2023-12-23T02:20:02.820Z,87.14
2023-12-23T02:20:32.719Z,86.72
2023-12-23T02:21:05.746Z,87.04
2023-12-23T02:21:50.821Z,87.04
2023-12-23T02:22:02.701Z,87.24
2023-12-23T02:22:32.686Z,87.76
2023-12-23T02:23:02.770Z,87.66
2023-12-23T02:23:32.765Z,87.55
2023-12-23T02:24:02.716Z,87.66
2023-12-23T02:24:32.693Z,87.76
2023-12-23T02:25:02.701Z,87.55
2023-12-23T02:25:32.658Z,87.55
2023-12-23T02:26:02.740Z,87.14
2023-12-23T02:26:32.632Z,86.72
2023-12-23T02:27:05.646Z,86.83
2023-12-23T02:27:51.682Z,86.83
2023-12-23T02:28:02.638Z,86.93
2023-12-23T02:28:32.648Z,87.55
2023-12-23T02:29:02.642Z,86.93
2023-12-23T02:29:32.638Z,87.35
2023-12-23T02:30:02.636Z,87.87
2023-12-23T02:30:32.700Z,87.24
2023-12-23T02:31:02.863Z,87.14
2023-12-23T02:31:32.606Z,87.14
2023-12-23T02:32:02.688Z,86.41
2023-12-23T02:32:33.545Z,85.89
2023-12-23T02:33:05.631Z,85.86
2023-12-23T02:33:50.784Z,85.75
2023-12-23T02:34:02.568Z,86.17
2023-12-23T02:34:32.588Z,86.47
2023-12-23T02:35:02.644Z,86.27
2023-12-23T02:35:32.541Z,86.27
2023-12-23T02:36:02.524Z,86.17
2023-12-23T02:36:32.638Z,86.58
2023-12-23T02:37:02.582Z,86.58
2023-12-23T02:37:32.727Z,87.10
2023-12-23T02:38:02.657Z,87.20
2023-12-23T02:38:32.545Z,86.68
2023-12-23T02:39:06.483Z,86.47
2023-12-23T02:39:50.625Z,86.58
2023-12-23T02:40:02.509Z,87.20
2023-12-23T02:40:32.525Z,87.20
2023-12-23T02:41:02.532Z,87.20
2023-12-23T02:41:33.089Z,86.89
2023-12-23T02:42:02.631Z,87.41
2023-12-23T02:42:32.537Z,87.62
2023-12-23T02:43:02.482Z,87.10
2023-12-23T02:43:32.566Z,86.89
2023-12-23T02:44:02.584Z,86.89
2023-12-23T02:44:32.529Z,86.99
2023-12-23T02:45:05.494Z,87.10
2023-12-23T02:45:50.700Z,87.20
2023-12-23T02:46:02.500Z,87.20
2023-12-23T02:46:32.495Z,87.62
2023-12-23T02:47:02.616Z,87.82
2023-12-23T02:47:32.512Z,87.41
2023-12-23T02:48:02.592Z,87.62
2023-12-23T02:48:32.784Z,87.62
2023-12-23T02:49:02.516Z,87.82
2023-12-23T02:49:32.456Z,87.93
2023-12-23T02:50:02.431Z,87.62
2023-12-23T02:50:32.370Z,87.72
2023-12-23T02:51:05.394Z,87.62
2023-12-23T02:51:50.513Z,87.41
2023-12-23T02:52:02.401Z,87.30
2023-12-23T02:52:32.407Z,87.41
2023-12-23T02:53:02.429Z,87.41
2023-12-23T02:53:32.397Z,87.82
2023-12-23T02:54:02.370Z,88.03
2023-12-23T02:54:32.358Z,88.55
2023-12-23T02:55:02.359Z,88.45
2023-12-23T02:55:32.351Z,87.30
2023-12-23T02:56:02.360Z,87.20
2023-12-23T02:56:32.371Z,87.20
2023-12-23T02:57:05.322Z,86.89
2023-12-23T02:57:51.242Z,86.47
2023-12-23T02:58:02.328Z,86.37
2023-12-23T02:58:32.319Z,86.44
2023-12-23T02:59:02.342Z,86.99
2023-12-23T02:59:35.125Z,87.10
2023-12-23T03:00:02.353Z,86.99
2023-12-23T03:00:32.338Z,86.33
2023-12-23T03:01:02.331Z,85.82
2023-12-23T03:01:32.297Z,85.92
2023-12-23T03:02:02.293Z,86.13
2023-12-23T03:02:32.992Z,86.02
2023-12-23T03:03:05.364Z,85.71
2023-12-23T03:03:50.385Z,86.44
2023-12-23T03:04:02.262Z,86.33
2023-12-23T03:04:32.282Z,86.65
2023-12-23T03:05:03.248Z,86.96
2023-12-23T03:05:32.307Z,87.10
2023-12-23T03:06:02.294Z,86.85
2023-12-23T03:06:32.211Z,86.75
2023-12-23T03:07:02.216Z,86.13
2023-12-23T03:07:32.283Z,86.02
2023-12-23T03:08:02.281Z,86.13
2023-12-23T03:08:32.206Z,86.65
2023-12-23T03:09:05.238Z,86.13
2023-12-23T03:09:50.453Z,86.02
2023-12-23T03:10:02.209Z,86.33
2023-12-23T03:10:32.224Z,85.92
2023-12-23T03:11:02.198Z,85.19
2023-12-23T03:11:32.168Z,85.09
2023-12-23T03:12:02.225Z,85.61
2023-12-23T03:12:32.173Z,85.92
2023-12-23T03:13:02.183Z,85.40
2023-12-23T03:13:32.138Z,85.09
2023-12-23T03:14:02.436Z,85.19
2023-12-23T03:14:32.110Z,85.30
2023-12-23T03:15:05.204Z,85.30
2023-12-23T03:15:50.255Z,85.09
2023-12-23T03:16:02.155Z,84.88
2023-12-23T03:16:32.126Z,84.99
2023-12-23T03:17:02.198Z,85.09
2023-12-23T03:17:32.216Z,84.16
2023-12-23T03:18:02.146Z,84.16
2023-12-23T03:18:32.130Z,84.47
2023-12-23T03:19:02.322Z,84.06
2023-12-23T03:19:32.073Z,83.75
2023-12-23T03:20:02.100Z,84.06
2023-12-23T03:20:32.066Z,83.85
2023-12-23T03:21:05.081Z,83.02
2023-12-23T03:21:50.182Z,83.44
2023-12-23T03:22:02.075Z,83.12
2023-12-23T03:22:32.953Z,82.92
2023-12-23T03:23:02.121Z,83.64
2023-12-23T03:23:32.039Z,83.85
2023-12-23T03:24:02.044Z,83.85
2023-12-23T03:24:32.025Z,83.85
2023-12-23T03:25:02.043Z,84.06
2023-12-23T03:25:32.078Z,84.88
2023-12-23T03:26:02.070Z,84.78
2023-12-23T03:26:31.997Z,84.16
2023-12-23T03:27:05.957Z,84.16
2023-12-23T03:27:50.098Z,83.95
2023-12-23T03:28:02.021Z,84.37
2023-12-23T03:28:31.997Z,84.68
2023-12-23T03:29:02.001Z,84.47
2023-12-23T03:29:31.952Z,85.09
2023-12-23T03:30:02.009Z,84.68
2023-12-23T03:30:31.985Z,84.47
2023-12-23T03:31:02.012Z,84.68
2023-12-23T03:31:31.960Z,85.92
2023-12-23T03:32:01.987Z,85.40
2023-12-23T03:32:31.990Z,85.71
2023-12-23T03:33:05.730Z,86.13
2023-12-23T03:33:50.242Z,86.23
2023-12-23T03:34:01.974Z,85.40
2023-12-23T03:34:31.926Z,85.30
2023-12-23T03:35:01.974Z,85.68
2023-12-23T03:35:31.936Z,86.23
2023-12-23T03:36:01.893Z,85.99
2023-12-23T03:36:31.898Z,86.29
2023-12-23T03:37:01.929Z,85.92
2023-12-23T03:37:31.902Z,86.23
2023-12-23T03:38:01.927Z,86.54
2023-12-23T03:38:31.895Z,86.50
2023-12-23T03:39:04.923Z,86.50
2023-12-23T03:39:50.038Z,86.50
2023-12-23T03:40:02.065Z,86.60
2023-12-23T03:40:31.861Z,86.60
2023-12-23T03:41:01.886Z,86.71
2023-12-23T03:41:31.836Z,86.71
2023-12-23T03:42:01.823Z,87.02
2023-12-23T03:42:31.841Z,87.02
2023-12-23T03:43:01.832Z,87.12
2023-12-23T03:43:31.840Z,87.47
2023-12-23T03:44:01.889Z,87.68
2023-12-23T03:44:31.804Z,87.74
2023-12-23T03:45:04.821Z,87.78
2023-12-23T03:45:49.919Z,88.20
2023-12-23T03:46:01.782Z,88.40
2023-12-23T03:46:31.790Z,88.20
2023-12-23T03:47:01.816Z,87.78
2023-12-23T03:47:31.821Z,88.30
2023-12-23T03:48:01.834Z,88.78
2023-12-23T03:48:31.797Z,88.26
2023-12-23T03:49:01.804Z,87.95
2023-12-23T03:49:31.777Z,88.36
2023-12-23T03:50:01.825Z,88.46
2023-12-23T03:50:31.745Z,88.26
2023-12-23T03:51:05.451Z,88.57
2023-12-23T03:51:49.845Z,88.88
2023-12-23T03:52:01.775Z,88.16
2023-12-23T03:52:31.743Z,87.74
2023-12-23T03:53:01.777Z,87.95
2023-12-23T03:53:31.725Z,88.57
2023-12-23T03:54:02.551Z,88.78
2023-12-23T03:54:31.709Z,88.67
2023-12-23T03:55:01.699Z,88.40
2023-12-23T03:55:31.689Z,88.30
2023-12-23T03:56:01.759Z,87.95
2023-12-23T03:56:31.705Z,87.88
2023-12-23T03:57:04.723Z,88.16
2023-12-23T03:57:50.650Z,88.67
2023-12-23T03:58:01.746Z,88.82
2023-12-23T03:58:31.728Z,88.71
2023-12-23T03:59:01.719Z,88.82
2023-12-23T03:59:32.214Z,88.82
2023-12-23T04:00:01.655Z,88.98
2023-12-23T04:00:31.662Z,89.23
2023-12-23T04:01:01.664Z,89.54
2023-12-23T04:01:40.686Z,89.13
2023-12-23T04:02:01.788Z,89.23
2023-12-23T04:02:31.660Z,89.54
2023-12-23T04:03:05.030Z,89.34
2023-12-23T04:03:49.815Z,89.65
2023-12-23T04:04:01.652Z,90.06
2023-12-23T04:04:31.608Z,90.26
2023-12-23T04:05:01.731Z,90.58
2023-12-23T04:05:31.619Z,90.78
2023-12-23T04:06:03.443Z,90.47
2023-12-23T04:06:31.638Z,90.26
2023-12-23T04:07:01.631Z,90.47
2023-12-23T04:07:31.667Z,91.09
2023-12-23T04:08:02.605Z,91.09
2023-12-23T04:08:31.611Z,91.41
2023-12-23T04:09:04.607Z,91.82
2023-12-23T04:09:49.668Z,91.47
2023-12-23T04:10:01.584Z,91.99
2023-12-23T04:10:31.553Z,92.61
2023-12-23T04:11:02.147Z,92.71
2023-12-23T04:11:31.590Z,92.91
2023-12-23T04:12:01.549Z,93.06
2023-12-23T04:12:31.741Z,93.48
2023-12-23T04:13:01.530Z,94.10
2023-12-23T04:13:31.537Z,94.51
2023-12-23T04:14:01.602Z,95.03
2023-12-23T04:14:31.510Z,95.14
2023-12-23T04:15:04.575Z,95.75
2023-12-23T04:15:50.396Z,96.17
2023-12-23T04:16:01.526Z,96.58
2023-12-23T04:16:32.170Z,96.89
2023-12-23T04:17:01.550Z,97.52
2023-12-23T04:17:31.498Z,98.13
2023-12-23T04:18:01.724Z,98.24
2023-12-23T04:18:33.288Z,98.75
2023-12-23T04:19:02.029Z,99.27
2023-12-23T04:19:31.464Z,99.38
2023-12-23T04:20:01.512Z,99.38
2023-12-23T04:20:31.466Z,99.99
2023-12-23T04:21:04.449Z,99.99
2023-12-23T04:21:50.536Z,99.99
2023-12-23T04:22:01.442Z,99.99
2023-12-23T04:22:31.458Z,99.99
2023-12-23T04:23:03.647Z,99.99
2023-12-23T04:23:31.524Z,99.99
2023-12-23T04:24:01.457Z,99.99
2023-12-23T04:24:31.463Z,99.99
2023-12-23T04:25:01.482Z,99.99
2023-12-23T04:25:31.416Z,99.99
2023-12-23T04:26:01.486Z,99.99
2023-12-23T04:26:31.393Z,99.99
2023-12-23T04:27:04.391Z,99.99
2023-12-23T04:27:49.605Z,99.99
2023-12-23T04:28:01.353Z,99.99
2023-12-23T04:28:31.420Z,99.99
2023-12-23T04:29:01.416Z,99.99
2023-12-23T04:29:31.354Z,99.99
2023-12-23T04:30:01.330Z,99.99
2023-12-23T04:30:31.384Z,99.99
2023-12-23T04:31:01.510Z,99.99
2023-12-23T04:31:31.432Z,99.99
2023-12-23T04:32:01.374Z,99.99
2023-12-23T04:32:31.508Z,99.99
2023-12-23T04:33:04.487Z,99.99
2023-12-23T04:33:49.570Z,99.99
2023-12-23T04:34:01.359Z,99.99
2023-12-23T04:34:31.340Z,99.99
2023-12-23T04:35:01.433Z,99.99
2023-12-23T04:35:31.326Z,99.99
2023-12-23T04:36:01.379Z,99.99
2023-12-23T04:36:31.330Z,99.99
2023-12-23T04:37:01.265Z,99.99
2023-12-23T04:37:31.272Z,99.99
2023-12-23T04:38:01.322Z,99.99
2023-12-23T04:38:31.265Z,99.99
2023-12-23T04:39:05.106Z,99.99
2023-12-23T04:39:49.411Z,99.99
2023-12-23T04:40:01.241Z,99.99
2023-12-23T04:40:31.226Z,99.99
2023-12-23T04:41:01.312Z,99.99
2023-12-23T04:41:31.256Z,99.99
2023-12-23T04:42:01.264Z,99.99
2023-12-23T04:42:31.198Z,99.99
2023-12-23T04:43:01.220Z,99.99
2023-12-23T04:43:31.170Z,99.99
2023-12-23T04:44:01.214Z,99.99
2023-12-23T04:44:31.228Z,99.99
2023-12-23T04:45:05.087Z,99.99
2023-12-23T04:45:49.656Z,99.99
2023-12-23T04:46:01.316Z,99.99
2023-12-23T04:46:31.254Z,99.99
2023-12-23T04:47:01.248Z,99.99
2023-12-23T04:47:31.213Z,99.99
2023-12-23T04:48:01.227Z,99.99
2023-12-23T04:48:31.184Z,99.99
2023-12-23T04:49:01.225Z,99.99
2023-12-23T04:49:31.149Z,99.99
2023-12-23T04:50:01.143Z,99.99
2023-12-23T04:50:31.179Z,99.99
2023-12-23T04:51:04.602Z,99.99
2023-12-23T04:51:49.977Z,99.99
2023-12-23T04:52:01.068Z,99.99
2023-12-23T04:52:31.110Z,99.99
2023-12-23T04:53:01.106Z,99.99
2023-12-23T04:53:31.136Z,99.99
2023-12-23T04:54:01.220Z,99.99
2023-12-23T04:54:31.070Z,99.99
2023-12-23T04:55:01.062Z,99.99
2023-12-23T04:55:31.074Z,99.99
2023-12-23T04:56:01.141Z,99.99
2023-12-23T04:56:31.067Z,99.99
2023-12-23T04:57:04.053Z,99.99
2023-12-23T04:57:49.184Z,99.99
2023-12-23T04:58:02.174Z,99.99
2023-12-23T04:58:31.068Z,99.99
2023-12-23T04:59:01.084Z,99.99
2023-12-23T04:59:31.103Z,99.99
2023-12-23T05:00:01.040Z,99.99
2023-12-23T05:00:31.042Z,99.99
2023-12-23T05:01:01.135Z,99.99
2023-12-23T05:01:31.007Z,99.99
2023-12-23T05:02:01.038Z,99.99
2023-12-23T05:02:31.091Z,99.99
2023-12-23T05:03:04.073Z,99.99
2023-12-23T05:03:49.151Z,99.99
2023-12-23T05:04:00.987Z,99.99
2023-12-23T05:04:30.974Z,99.99
2023-12-23T05:05:01.016Z,99.99
2023-12-23T05:05:31.100Z,99.99
2023-12-23T05:06:00.990Z,99.99
2023-12-23T05:06:30.950Z,99.99
2023-12-23T05:07:00.961Z,99.99
2023-12-23T05:07:30.980Z,99.99
2023-12-23T05:08:01.029Z,99.99
2023-12-23T05:08:31.108Z,99.99
2023-12-23T05:09:03.953Z,99.99
2023-12-23T05:09:49.650Z,99.99
2023-12-23T05:10:00.898Z,99.99
2023-12-23T05:10:30.922Z,99.99
2023-12-23T05:11:00.967Z,99.99
2023-12-23T05:11:30.877Z,99.99
2023-12-23T05:12:00.890Z,99.99
2023-12-23T05:12:30.897Z,99.99
2023-12-23T05:13:00.886Z,99.99
2023-12-23T05:13:30.872Z,99.99
2023-12-23T05:14:00.908Z,99.99
2023-12-23T05:14:31.184Z,99.99
2023-12-23T05:15:03.977Z,99.99
2023-12-23T05:15:49.018Z,99.99
2023-12-23T05:16:00.846Z,99.99
2023-12-23T05:16:30.848Z,99.99
2023-12-23T05:17:00.857Z,99.99
2023-12-23T05:17:31.130Z,99.99
2023-12-23T05:18:00.850Z,99.99
2023-12-23T05:18:30.940Z,99.99
2023-12-23T05:19:00.976Z,99.99
2023-12-23T05:19:30.826Z,99.99
2023-12-23T05:20:00.880Z,99.99
2023-12-23T05:20:30.831Z,99.99
2023-12-23T05:21:03.845Z,99.99
2023-12-23T05:21:49.060Z,99.99
2023-12-23T05:22:00.813Z,99.99
2023-12-23T05:22:30.801Z,99.99
2023-12-23T05:23:01.622Z,99.99
2023-12-23T05:23:30.850Z,99.99
2023-12-23T05:24:00.796Z,99.99
2023-12-23T05:24:30.764Z,99.99
2023-12-23T05:25:00.744Z,99.99
2023-12-23T05:25:30.806Z,99.99
2023-12-23T05:26:00.841Z,99.99
2023-12-23T05:26:30.768Z,99.99
2023-12-23T05:27:03.769Z,99.99
2023-12-23T05:27:48.831Z,99.99
2023-12-23T05:28:00.708Z,99.99
2023-12-23T05:28:30.766Z,99.99
2023-12-23T05:29:00.738Z,99.99
2023-12-23T05:29:30.713Z,99.99
2023-12-23T05:30:00.771Z,99.99
2023-12-23T05:30:30.751Z,99.99
2023-12-23T05:31:00.720Z,99.99
2023-12-23T05:31:30.676Z,99.99
2023-12-23T05:32:00.673Z,99.99
2023-12-23T05:32:32.559Z,99.99
2023-12-23T05:33:03.831Z,99.99
2023-12-23T05:33:50.572Z,99.99
2023-12-23T05:34:00.692Z,99.99
2023-12-23T05:34:30.661Z,99.99
2023-12-23T05:35:00.664Z,99.99
2023-12-23T05:35:30.692Z,99.99
2023-12-23T05:36:00.670Z,99.99
2023-12-23T05:36:30.677Z,99.99
2023-12-23T05:37:00.627Z,99.99
2023-12-23T05:37:30.645Z,99.99
2023-12-23T05:38:04.149Z,99.99
2023-12-23T05:38:30.713Z,99.99
2023-12-23T05:39:05.282Z,99.99
2023-12-23T05:39:50.778Z,99.99
2023-12-23T05:40:00.620Z,99.99
2023-12-23T05:40:30.584Z,99.99
2023-12-23T05:41:00.696Z,99.99
2023-12-23T05:41:30.600Z,99.99
2023-12-23T05:42:00.576Z,99.99
2023-12-23T05:42:30.579Z,99.99
2023-12-23T05:43:00.593Z,99.99
2023-12-23T05:43:30.586Z,99.99
2023-12-23T05:44:00.604Z,99.99
2023-12-23T05:44:30.671Z,99.99
2023-12-23T05:45:03.628Z,99.99
2023-12-23T05:45:50.025Z,99.99
2023-12-23T05:46:00.548Z,99.99
2023-12-23T05:46:30.523Z,99.99
2023-12-23T05:47:00.549Z,99.99
2023-12-23T05:47:30.711Z,99.99
2023-12-23T05:48:00.586Z,99.99
2023-12-23T05:48:30.549Z,99.99
2023-12-23T05:49:03.170Z,99.99
2023-12-23T05:49:30.486Z,99.99
2023-12-23T05:50:00.563Z,99.99
2023-12-23T05:50:30.531Z,99.99
2023-12-23T05:51:03.539Z,99.99
2023-12-23T05:51:48.598Z,99.99
2023-12-23T05:52:00.482Z,99.99
2023-12-23T05:52:30.434Z,99.99
2023-12-23T05:53:00.485Z,99.99
2023-12-23T05:53:30.553Z,99.99
2023-12-23T05:54:00.483Z,99.99
2023-12-23T05:54:30.431Z,99.99
2023-12-23T05:55:00.477Z,99.99
2023-12-23T05:55:30.484Z,99.99
2023-12-23T05:56:01.020Z,99.99
2023-12-23T05:56:30.479Z,99.99
2023-12-23T05:57:03.463Z,99.99
2023-12-23T05:57:48.514Z,99.99
2023-12-23T05:58:00.457Z,99.99
2023-12-23T05:58:30.396Z,99.99
2023-12-23T05:59:00.461Z,99.99
2023-12-23T05:59:30.400Z,99.99
2023-12-23T06:00:00.430Z,99.99
2023-12-23T06:00:30.381Z,99.99
2023-12-23T06:01:00.464Z,99.99
2023-12-23T06:01:30.378Z,99.99
2023-12-23T06:02:01.011Z,99.99
2023-12-23T06:02:30.444Z,99.99
2023-12-23T06:03:03.363Z,99.99
2023-12-23T06:03:48.495Z,99.99
2023-12-23T06:04:00.367Z,99.99
2023-12-23T06:04:30.331Z,99.99
2023-12-23T06:05:00.447Z,99.99
2023-12-23T06:05:30.469Z,99.99
2023-12-23T06:06:00.348Z,99.99
2023-12-23T06:06:30.387Z,99.99
2023-12-23T06:07:00.306Z,99.99
2023-12-23T06:07:30.336Z,99.99
2023-12-23T06:08:00.419Z,99.99
2023-12-23T06:08:30.275Z,99.99
2023-12-23T06:09:03.287Z,99.99
2023-12-23T06:09:48.478Z,99.99
2023-12-23T06:10:00.283Z,99.99
2023-12-23T06:10:33.379Z,99.99
2023-12-23T06:11:01.889Z,99.99
2023-12-23T06:11:30.318Z,99.99
2023-12-23T06:12:00.260Z,99.99
2023-12-23T06:12:30.244Z,99.99
2023-12-23T06:13:00.258Z,99.99
2023-12-23T06:13:30.270Z,99.99
2023-12-23T06:14:00.330Z,99.99
2023-12-23T06:14:30.217Z,99.99
2023-12-23T06:15:03.346Z,99.99
2023-12-23T06:15:49.632Z,99.99
2023-12-23T06:16:00.196Z,99.99
2023-12-23T06:16:30.226Z,99.99
2023-12-23T06:17:00.391Z,99.99
2023-12-23T06:17:30.292Z,99.99
2023-12-23T06:18:01.413Z,99.99
2023-12-23T06:18:30.292Z,99.99
2023-12-23T06:19:00.285Z,99.99
2023-12-23T06:19:30.251Z,99.99
2023-12-23T06:20:00.340Z,99.99
2023-12-23T06:20:30.169Z,99.99
2023-12-23T06:21:03.215Z,99.99
2023-12-23T06:21:48.297Z,99.99
2023-12-23T06:22:00.154Z,99.99
2023-12-23T06:22:30.138Z,99.99
2023-12-23T06:23:02.171Z,99.99
2023-12-23T06:23:30.273Z,99.99
2023-12-23T06:24:00.166Z,99.99
2023-12-23T06:24:31.947Z,99.99
2023-12-23T06:25:00.146Z,99.99
2023-12-23T06:25:30.127Z,99.99
2023-12-23T06:26:00.686Z,99.99
2023-12-23T06:26:30.095Z,99.99